sensor_id;sensor_type;location;lat;lon;timestamp;P1;durP1;ratioP1;P2;durP2;ratioP2
9374;SDS011;4727;51.202;6.344;2023-07-13T00:02:06;3.67;;;1.10;;
9374;SDS011;4727;51.202;6.344;2023-07-13T00:04:32;0.93;;;0.93;;
9374;SDS011;4727;51.202;6.344;2023-07-13T00:06:58;0.87;;;0.60;;
9374;SDS011;4727;51.202;6.344;2023-07-13T00:09:24;1.00;;;0.90;;
9374;SDS011;4727;51.202;6.344;2023-07-13T00:11:50;0.73;;;0.73;;
9374;SDS011;4727;51.202;6.344;2023-07-13T00:14:17;1.23;;;1.13;;
9374;SDS011;4727;51.202;6.344;2023-07-13T00:16:43;1.07;;;0.63;;
9374;SDS011;4727;51.202;6.344;2023-07-13T00:19:09;0.70;;;0.70;;
9374;SDS011;4727;51.202;6.344;2023-07-13T00:21:36;1.43;;;0.90;;
9374;SDS011;4727;51.202;6.344;2023-07-13T00:24:02;2.57;;;0.93;;
9374;SDS011;4727;51.202;6.344;2023-07-13T00:26:28;2.60;;;1.33;;
9374;SDS011;4727;51.202;6.344;2023-07-13T00:39:09;0.93;;;0.73;;
9374;SDS011;4727;51.202;6.344;2023-07-13T00:41:35;1.20;;;1.20;;
9374;SDS011;4727;51.202;6.344;2023-07-13T00:44:02;1.80;;;0.70;;
9374;SDS011;4727;51.202;6.344;2023-07-13T00:46:28;2.10;;;0.97;;
9374;SDS011;4727;51.202;6.344;2023-07-13T00:48:57;1.30;;;1.20;;
9374;SDS011;4727;51.202;6.344;2023-07-13T00:51:30;0.50;;;0.50;;
9374;SDS011;4727;51.202;6.344;2023-07-13T00:54:16;1.93;;;0.93;;
9374;SDS011;4727;51.202;6.344;2023-07-13T00:56:44;2.30;;;1.73;;
9374;SDS011;4727;51.202;6.344;2023-07-13T00:59:11;1.63;;;0.80;;
9374;SDS011;4727;51.202;6.344;2023-07-13T01:01:38;1.47;;;1.37;;
9374;SDS011;4727;51.202;6.344;2023-07-13T01:04:04;4.17;;;1.33;;
9374;SDS011;4727;51.202;6.344;2023-07-13T01:06:33;1.87;;;1.17;;
9374;SDS011;4727;51.202;6.344;2023-07-13T01:09:00;1.50;;;0.93;;
9374;SDS011;4727;51.202;6.344;2023-07-13T01:11:27;1.93;;;0.60;;
9374;SDS011;4727;51.202;6.344;2023-07-13T01:13:53;1.17;;;0.97;;
9374;SDS011;4727;51.202;6.344;2023-07-13T01:16:35;0.87;;;0.87;;
9374;SDS011;4727;51.202;6.344;2023-07-13T01:19:03;2.70;;;1.00;;
9374;SDS011;4727;51.202;6.344;2023-07-13T01:21:42;3.00;;;1.10;;
9374;SDS011;4727;51.202;6.344;2023-07-13T01:24:09;1.63;;;0.83;;
9374;SDS011;4727;51.202;6.344;2023-07-13T01:26:34;0.97;;;0.97;;
9374;SDS011;4727;51.202;6.344;2023-07-13T01:29:00;1.23;;;0.90;;
9374;SDS011;4727;51.202;6.344;2023-07-13T01:31:26;3.27;;;1.63;;
9374;SDS011;4727;51.202;6.344;2023-07-13T01:33:52;4.13;;;0.93;;
9374;SDS011;4727;51.202;6.344;2023-07-13T01:36:18;0.93;;;0.93;;
9374;SDS011;4727;51.202;6.344;2023-07-13T01:38:46;0.97;;;0.90;;
9374;SDS011;4727;51.202;6.344;2023-07-13T01:41:11;1.00;;;0.80;;
9374;SDS011;4727;51.202;6.344;2023-07-13T01:43:37;0.93;;;0.93;;
9374;SDS011;4727;51.202;6.344;2023-07-13T01:46:02;3.20;;;1.07;;
9374;SDS011;4727;51.202;6.344;2023-07-13T01:48:28;0.93;;;0.90;;
9374;SDS011;4727;51.202;6.344;2023-07-13T01:50:53;3.70;;;0.80;;
9374;SDS011;4727;51.202;6.344;2023-07-13T01:53:19;3.73;;;1.50;;
9374;SDS011;4727;51.202;6.344;2023-07-13T01:55:45;1.40;;;1.30;;
9374;SDS011;4727;51.202;6.344;2023-07-13T01:58:10;1.93;;;0.77;;
9374;SDS011;4727;51.202;6.344;2023-07-13T02:00:36;0.93;;;0.93;;
9374;SDS011;4727;51.202;6.344;2023-07-13T02:03:01;0.53;;;0.53;;
9374;SDS011;4727;51.202;6.344;2023-07-13T02:05:27;4.67;;;1.10;;
9374;SDS011;4727;51.202;6.344;2023-07-13T02:07:52;1.33;;;0.83;;
9374;SDS011;4727;51.202;6.344;2023-07-13T02:10:18;0.87;;;0.87;;
9374;SDS011;4727;51.202;6.344;2023-07-13T02:12:44;2.13;;;1.27;;
9374;SDS011;4727;51.202;6.344;2023-07-13T02:15:10;1.00;;;1.00;;
9374;SDS011;4727;51.202;6.344;2023-07-13T02:17:36;2.23;;;1.10;;
9374;SDS011;4727;51.202;6.344;2023-07-13T02:20:02;1.17;;;1.03;;
9374;SDS011;4727;51.202;6.344;2023-07-13T02:22:29;0.73;;;0.73;;
9374;SDS011;4727;51.202;6.344;2023-07-13T02:24:55;1.00;;;0.90;;
9374;SDS011;4727;51.202;6.344;2023-07-13T02:27:21;4.70;;;1.47;;
9374;SDS011;4727;51.202;6.344;2023-07-13T02:29:46;1.30;;;1.20;;
9374;SDS011;4727;51.202;6.344;2023-07-13T02:32:12;0.83;;;0.83;;
9374;SDS011;4727;51.202;6.344;2023-07-13T02:34:38;3.30;;;1.47;;
9374;SDS011;4727;51.202;6.344;2023-07-13T02:37:03;1.00;;;1.00;;
9374;SDS011;4727;51.202;6.344;2023-07-13T02:39:29;1.43;;;1.20;;
9374;SDS011;4727;51.202;6.344;2023-07-13T02:41:57;1.40;;;1.30;;
9374;SDS011;4727;51.202;6.344;2023-07-13T02:44:23;2.00;;;0.90;;
9374;SDS011;4727;51.202;6.344;2023-07-13T02:46:49;1.17;;;1.07;;
9374;SDS011;4727;51.202;6.344;2023-07-13T02:49:14;0.70;;;0.70;;
9374;SDS011;4727;51.202;6.344;2023-07-13T02:51:40;2.40;;;1.20;;
9374;SDS011;4727;51.202;6.344;2023-07-13T02:54:06;1.13;;;0.90;;
9374;SDS011;4727;51.202;6.344;2023-07-13T02:56:33;1.10;;;1.10;;
9374;SDS011;4727;51.202;6.344;2023-07-13T02:58:59;1.90;;;1.33;;
9374;SDS011;4727;51.202;6.344;2023-07-13T03:01:24;1.40;;;1.13;;
9374;SDS011;4727;51.202;6.344;2023-07-13T03:03:50;1.07;;;1.07;;
9374;SDS011;4727;51.202;6.344;2023-07-13T03:06:17;1.03;;;0.93;;
9374;SDS011;4727;51.202;6.344;2023-07-13T03:08:43;4.70;;;1.63;;
9374;SDS011;4727;51.202;6.344;2023-07-13T03:11:11;1.20;;;1.10;;
9374;SDS011;4727;51.202;6.344;2023-07-13T03:13:39;2.43;;;0.93;;
9374;SDS011;4727;51.202;6.344;2023-07-13T03:16:05;2.40;;;1.63;;
9374;SDS011;4727;51.202;6.344;2023-07-13T03:18:31;1.73;;;0.97;;
9374;SDS011;4727;51.202;6.344;2023-07-13T03:20:57;1.80;;;1.10;;
9374;SDS011;4727;51.202;6.344;2023-07-13T03:23:22;1.20;;;1.10;;
9374;SDS011;4727;51.202;6.344;2023-07-13T03:25:49;3.20;;;1.60;;
9374;SDS011;4727;51.202;6.344;2023-07-13T03:28:15;4.67;;;1.33;;
9374;SDS011;4727;51.202;6.344;2023-07-13T03:30:41;1.00;;;1.00;;
9374;SDS011;4727;51.202;6.344;2023-07-13T03:33:07;1.57;;;1.17;;
9374;SDS011;4727;51.202;6.344;2023-07-13T03:35:33;7.03;;;1.60;;
9374;SDS011;4727;51.202;6.344;2023-07-13T03:37:59;0.87;;;0.87;;
9374;SDS011;4727;51.202;6.344;2023-07-13T03:40:25;1.57;;;1.47;;
9374;SDS011;4727;51.202;6.344;2023-07-13T03:42:52;1.73;;;1.63;;
9374;SDS011;4727;51.202;6.344;2023-07-13T03:45:18;1.63;;;1.30;;
9374;SDS011;4727;51.202;6.344;2023-07-13T03:47:44;2.47;;;1.57;;
9374;SDS011;4727;51.202;6.344;2023-07-13T03:50:10;5.13;;;1.40;;
9374;SDS011;4727;51.202;6.344;2023-07-13T03:52:35;1.33;;;1.23;;
9374;SDS011;4727;51.202;6.344;2023-07-13T03:55:01;2.37;;;1.30;;
9374;SDS011;4727;51.202;6.344;2023-07-13T03:57:27;1.13;;;1.07;;
9374;SDS011;4727;51.202;6.344;2023-07-13T03:59:52;1.87;;;1.30;;
9374;SDS011;4727;51.202;6.344;2023-07-13T04:02:18;1.60;;;1.50;;
9374;SDS011;4727;51.202;6.344;2023-07-13T04:04:44;1.57;;;1.33;;
9374;SDS011;4727;51.202;6.344;2023-07-13T04:07:09;2.10;;;1.37;;
9374;SDS011;4727;51.202;6.344;2023-07-13T04:09:35;4.77;;;1.40;;
9374;SDS011;4727;51.202;6.344;2023-07-13T04:12:01;1.50;;;1.40;;
9374;SDS011;4727;51.202;6.344;2023-07-13T04:14:27;1.60;;;1.50;;
9374;SDS011;4727;51.202;6.344;2023-07-13T04:16:52;3.93;;;1.63;;
9374;SDS011;4727;51.202;6.344;2023-07-13T04:19:19;2.57;;;1.23;;
9374;SDS011;4727;51.202;6.344;2023-07-13T04:21:45;2.33;;;1.20;;
9374;SDS011;4727;51.202;6.344;2023-07-13T04:24:11;4.27;;;1.23;;
9374;SDS011;4727;51.202;6.344;2023-07-13T04:26:37;1.00;;;0.90;;
9374;SDS011;4727;51.202;6.344;2023-07-13T04:29:03;2.10;;;1.00;;
9374;SDS011;4727;51.202;6.344;2023-07-13T04:31:30;1.63;;;1.30;;
9374;SDS011;4727;51.202;6.344;2023-07-13T04:33:56;2.80;;;1.47;;
9374;SDS011;4727;51.202;6.344;2023-07-13T04:36:22;2.20;;;1.60;;
9374;SDS011;4727;51.202;6.344;2023-07-13T04:38:50;2.63;;;1.50;;
9374;SDS011;4727;51.202;6.344;2023-07-13T04:41:16;1.53;;;1.40;;
9374;SDS011;4727;51.202;6.344;2023-07-13T04:43:41;3.53;;;2.90;;
9374;SDS011;4727;51.202;6.344;2023-07-13T04:46:09;1.30;;;1.20;;
9374;SDS011;4727;51.202;6.344;2023-07-13T04:48:36;3.30;;;1.43;;
9374;SDS011;4727;51.202;6.344;2023-07-13T04:51:02;4.70;;;1.87;;
9374;SDS011;4727;51.202;6.344;2023-07-13T04:53:29;1.43;;;1.20;;
9374;SDS011;4727;51.202;6.344;2023-07-13T04:55:55;1.37;;;1.27;;
9374;SDS011;4727;51.202;6.344;2023-07-13T04:58:22;1.10;;;1.00;;
9374;SDS011;4727;51.202;6.344;2023-07-13T05:00:48;3.30;;;1.67;;
9374;SDS011;4727;51.202;6.344;2023-07-13T05:03:14;1.47;;;1.47;;
9374;SDS011;4727;51.202;6.344;2023-07-13T05:05:40;2.20;;;1.50;;
9374;SDS011;4727;51.202;6.344;2023-07-13T05:08:05;4.80;;;1.80;;
9374;SDS011;4727;51.202;6.344;2023-07-13T05:10:32;1.37;;;1.37;;
9374;SDS011;4727;51.202;6.344;2023-07-13T05:13:00;1.77;;;1.67;;
9374;SDS011;4727;51.202;6.344;2023-07-13T05:15:26;1.93;;;1.60;;
9374;SDS011;4727;51.202;6.344;2023-07-13T05:17:52;2.53;;;1.27;;
9374;SDS011;4727;51.202;6.344;2023-07-13T05:20:18;3.87;;;1.20;;
9374;SDS011;4727;51.202;6.344;2023-07-13T05:22:44;2.00;;;1.80;;
9374;SDS011;4727;51.202;6.344;2023-07-13T05:25:11;2.63;;;1.53;;
9374;SDS011;4727;51.202;6.344;2023-07-13T05:27:38;1.47;;;1.37;;
9374;SDS011;4727;51.202;6.344;2023-07-13T05:30:04;2.33;;;1.83;;
9374;SDS011;4727;51.202;6.344;2023-07-13T05:32:30;2.27;;;2.00;;
9374;SDS011;4727;51.202;6.344;2023-07-13T05:34:56;2.67;;;1.50;;
9374;SDS011;4727;51.202;6.344;2023-07-13T05:37:21;1.60;;;1.50;;
9374;SDS011;4727;51.202;6.344;2023-07-13T05:39:47;2.40;;;1.53;;
9374;SDS011;4727;51.202;6.344;2023-07-13T05:42:13;4.07;;;1.50;;
9374;SDS011;4727;51.202;6.344;2023-07-13T05:44:39;5.50;;;2.03;;
9374;SDS011;4727;51.202;6.344;2023-07-13T05:47:04;4.37;;;1.53;;
9374;SDS011;4727;51.202;6.344;2023-07-13T05:49:30;2.73;;;2.00;;
9374;SDS011;4727;51.202;6.344;2023-07-13T05:51:56;3.43;;;2.03;;
9374;SDS011;4727;51.202;6.344;2023-07-13T05:54:22;11.57;;;2.30;;
9374;SDS011;4727;51.202;6.344;2023-07-13T05:56:47;7.50;;;2.27;;
9374;SDS011;4727;51.202;6.344;2023-07-13T05:59:13;5.77;;;2.17;;
9374;SDS011;4727;51.202;6.344;2023-07-13T06:01:38;2.57;;;2.13;;
9374;SDS011;4727;51.202;6.344;2023-07-13T06:04:04;4.67;;;2.20;;
9374;SDS011;4727;51.202;6.344;2023-07-13T06:06:30;4.43;;;2.00;;
9374;SDS011;4727;51.202;6.344;2023-07-13T06:08:55;4.27;;;2.40;;
9374;SDS011;4727;51.202;6.344;2023-07-13T06:11:22;2.13;;;1.87;;
9374;SDS011;4727;51.202;6.344;2023-07-13T06:13:49;7.13;;;2.73;;
9374;SDS011;4727;51.202;6.344;2023-07-13T06:16:16;4.30;;;2.20;;
9374;SDS011;4727;51.202;6.344;2023-07-13T06:18:42;3.93;;;2.23;;
9374;SDS011;4727;51.202;6.344;2023-07-13T06:21:16;3.23;;;2.33;;
9374;SDS011;4727;51.202;6.344;2023-07-13T06:23:43;4.10;;;2.27;;
9374;SDS011;4727;51.202;6.344;2023-07-13T06:26:10;3.57;;;2.40;;
9374;SDS011;4727;51.202;6.344;2023-07-13T06:28:36;7.73;;;2.27;;
9374;SDS011;4727;51.202;6.344;2023-07-13T06:31:04;5.37;;;2.67;;
9374;SDS011;4727;51.202;6.344;2023-07-13T06:33:33;3.93;;;2.10;;
9374;SDS011;4727;51.202;6.344;2023-07-13T06:35:59;2.93;;;2.40;;
9374;SDS011;4727;51.202;6.344;2023-07-13T06:38:26;7.77;;;2.00;;
9374;SDS011;4727;51.202;6.344;2023-07-13T06:40:51;3.47;;;2.40;;
9374;SDS011;4727;51.202;6.344;2023-07-13T06:43:17;5.83;;;2.10;;
9374;SDS011;4727;51.202;6.344;2023-07-13T06:45:44;5.00;;;1.90;;
9374;SDS011;4727;51.202;6.344;2023-07-13T06:48:12;2.77;;;2.20;;
9374;SDS011;4727;51.202;6.344;2023-07-13T06:50:39;4.17;;;2.03;;
9374;SDS011;4727;51.202;6.344;2023-07-13T06:53:04;4.03;;;2.10;;
9374;SDS011;4727;51.202;6.344;2023-07-13T06:55:30;2.40;;;2.20;;
9374;SDS011;4727;51.202;6.344;2023-07-13T06:57:55;2.40;;;2.30;;
9374;SDS011;4727;51.202;6.344;2023-07-13T07:00:22;3.40;;;2.50;;
9374;SDS011;4727;51.202;6.344;2023-07-13T07:02:47;2.43;;;2.23;;
9374;SDS011;4727;51.202;6.344;2023-07-13T07:05:13;7.60;;;2.37;;
9374;SDS011;4727;51.202;6.344;2023-07-13T07:07:39;2.33;;;2.20;;
9374;SDS011;4727;51.202;6.344;2023-07-13T07:10:04;2.63;;;2.43;;
9374;SDS011;4727;51.202;6.344;2023-07-13T07:12:30;4.00;;;2.43;;
9374;SDS011;4727;51.202;6.344;2023-07-13T07:14:57;2.20;;;2.10;;
9374;SDS011;4727;51.202;6.344;2023-07-13T07:17:23;4.43;;;2.03;;
9374;SDS011;4727;51.202;6.344;2023-07-13T07:19:50;3.63;;;2.33;;
9374;SDS011;4727;51.202;6.344;2023-07-13T07:22:15;6.80;;;2.00;;
9374;SDS011;4727;51.202;6.344;2023-07-13T07:24:41;3.37;;;2.57;;
9374;SDS011;4727;51.202;6.344;2023-07-13T07:27:06;2.23;;;2.03;;
9374;SDS011;4727;51.202;6.344;2023-07-13T07:29:32;2.70;;;2.50;;
9374;SDS011;4727;51.202;6.344;2023-07-13T07:31:58;3.53;;;2.07;;
9374;SDS011;4727;51.202;6.344;2023-07-13T07:34:25;2.03;;;1.93;;
9374;SDS011;4727;51.202;6.344;2023-07-13T07:36:50;4.47;;;2.40;;
9374;SDS011;4727;51.202;6.344;2023-07-13T07:39:16;3.63;;;2.20;;
9374;SDS011;4727;51.202;6.344;2023-07-13T07:41:42;3.07;;;1.93;;
9374;SDS011;4727;51.202;6.344;2023-07-13T07:44:07;2.27;;;2.17;;
9374;SDS011;4727;51.202;6.344;2023-07-13T07:46:34;3.37;;;2.77;;
9374;SDS011;4727;51.202;6.344;2023-07-13T07:49:00;4.70;;;2.27;;
9374;SDS011;4727;51.202;6.344;2023-07-13T07:51:26;5.70;;;2.23;;
9374;SDS011;4727;51.202;6.344;2023-07-13T07:53:52;3.07;;;1.83;;
9374;SDS011;4727;51.202;6.344;2023-07-13T07:56:17;6.50;;;2.70;;
9374;SDS011;4727;51.202;6.344;2023-07-13T07:58:43;5.23;;;2.50;;
9374;SDS011;4727;51.202;6.344;2023-07-13T08:01:09;1.87;;;1.77;;
9374;SDS011;4727;51.202;6.344;2023-07-13T08:03:35;4.13;;;2.70;;
9374;SDS011;4727;51.202;6.344;2023-07-13T08:06:00;2.57;;;2.30;;
9374;SDS011;4727;51.202;6.344;2023-07-13T08:08:27;2.47;;;2.27;;
9374;SDS011;4727;51.202;6.344;2023-07-13T08:10:52;2.80;;;2.50;;
9374;SDS011;4727;51.202;6.344;2023-07-13T08:13:18;5.53;;;2.83;;
9374;SDS011;4727;51.202;6.344;2023-07-13T08:15:45;4.83;;;2.03;;
9374;SDS011;4727;51.202;6.344;2023-07-13T08:18:11;2.57;;;2.37;;
9374;SDS011;4727;51.202;6.344;2023-07-13T08:20:40;4.00;;;2.60;;
9374;SDS011;4727;51.202;6.344;2023-07-13T08:23:07;5.53;;;2.97;;
9374;SDS011;4727;51.202;6.344;2023-07-13T08:25:34;7.13;;;2.63;;
9374;SDS011;4727;51.202;6.344;2023-07-13T08:28:01;2.83;;;2.50;;
9374;SDS011;4727;51.202;6.344;2023-07-13T08:30:28;2.87;;;2.33;;
9374;SDS011;4727;51.202;6.344;2023-07-13T08:32:53;5.93;;;2.60;;
9374;SDS011;4727;51.202;6.344;2023-07-13T08:35:19;3.13;;;2.30;;
9374;SDS011;4727;51.202;6.344;2023-07-13T08:37:45;3.93;;;2.13;;
9374;SDS011;4727;51.202;6.344;2023-07-13T08:40:11;4.83;;;2.47;;
9374;SDS011;4727;51.202;6.344;2023-07-13T08:42:39;3.93;;;1.87;;
9374;SDS011;4727;51.202;6.344;2023-07-13T08:45:14;3.17;;;2.87;;
9374;SDS011;4727;51.202;6.344;2023-07-13T08:48:02;3.03;;;2.67;;
9374;SDS011;4727;51.202;6.344;2023-07-13T08:50:35;2.87;;;2.20;;
9374;SDS011;4727;51.202;6.344;2023-07-13T08:53:25;3.30;;;2.70;;
9374;SDS011;4727;51.202;6.344;2023-07-13T08:55:59;3.03;;;2.20;;
9374;SDS011;4727;51.202;6.344;2023-07-13T08:58:26;2.03;;;1.80;;
9374;SDS011;4727;51.202;6.344;2023-07-13T09:01:02;4.70;;;2.83;;
9374;SDS011;4727;51.202;6.344;2023-07-13T09:03:40;1.93;;;1.83;;
9374;SDS011;4727;51.202;6.344;2023-07-13T09:06:13;3.47;;;2.47;;
9374;SDS011;4727;51.202;6.344;2023-07-13T09:08:51;2.37;;;2.13;;
9374;SDS011;4727;51.202;6.344;2023-07-13T09:14:49;2.00;;;1.80;;
9374;SDS011;4727;51.202;6.344;2023-07-13T09:17:19;2.73;;;2.53;;
9374;SDS011;4727;51.202;6.344;2023-07-13T09:19:53;2.60;;;2.50;;
9374;SDS011;4727;51.202;6.344;2023-07-13T09:22:32;1.90;;;1.80;;
9374;SDS011;4727;51.202;6.344;2023-07-13T09:27:48;2.30;;;2.20;;
9374;SDS011;4727;51.202;6.344;2023-07-13T09:30:25;2.17;;;1.83;;
9374;SDS011;4727;51.202;6.344;2023-07-13T09:32:58;2.37;;;2.17;;
9374;SDS011;4727;51.202;6.344;2023-07-13T09:35:28;2.00;;;1.90;;
9374;SDS011;4727;51.202;6.344;2023-07-13T09:38:14;2.70;;;1.63;;
9374;SDS011;4727;51.202;6.344;2023-07-13T09:40:43;2.43;;;2.20;;
9374;SDS011;4727;51.202;6.344;2023-07-13T09:43:17;4.57;;;2.07;;
9374;SDS011;4727;51.202;6.344;2023-07-13T09:45:46;2.63;;;2.17;;
9374;SDS011;4727;51.202;6.344;2023-07-13T09:48:13;1.83;;;1.73;;
9374;SDS011;4727;51.202;6.344;2023-07-13T09:50:40;2.77;;;2.10;;
9374;SDS011;4727;51.202;6.344;2023-07-13T09:53:16;2.00;;;1.90;;
9374;SDS011;4727;51.202;6.344;2023-07-13T09:55:44;2.00;;;1.30;;
9374;SDS011;4727;51.202;6.344;2023-07-13T09:58:14;2.10;;;1.90;;
9374;SDS011;4727;51.202;6.344;2023-07-13T10:00:43;3.23;;;1.80;;
9374;SDS011;4727;51.202;6.344;2023-07-13T10:03:19;2.53;;;1.67;;
9374;SDS011;4727;51.202;6.344;2023-07-13T10:05:48;2.30;;;2.07;;
9374;SDS011;4727;51.202;6.344;2023-07-13T10:08:20;2.07;;;1.77;;
9374;SDS011;4727;51.202;6.344;2023-07-13T10:10:46;1.87;;;1.53;;
9374;SDS011;4727;51.202;6.344;2023-07-13T10:13:36;2.20;;;1.93;;
9374;SDS011;4727;51.202;6.344;2023-07-13T10:16:06;1.93;;;1.30;;
9374;SDS011;4727;51.202;6.344;2023-07-13T10:18:55;1.60;;;1.50;;
9374;SDS011;4727;51.202;6.344;2023-07-13T10:21:23;1.90;;;1.77;;
9374;SDS011;4727;51.202;6.344;2023-07-13T10:23:57;3.23;;;1.83;;
9374;SDS011;4727;51.202;6.344;2023-07-13T10:26:48;2.13;;;1.27;;
9374;SDS011;4727;51.202;6.344;2023-07-13T10:29:34;1.40;;;1.30;;
9374;SDS011;4727;51.202;6.344;2023-07-13T10:32:07;3.00;;;1.73;;
9374;SDS011;4727;51.202;6.344;2023-07-13T10:34:36;1.80;;;1.67;;
9374;SDS011;4727;51.202;6.344;2023-07-13T10:37:02;2.00;;;1.20;;
9374;SDS011;4727;51.202;6.344;2023-07-13T10:39:30;2.70;;;1.90;;
9374;SDS011;4727;51.202;6.344;2023-07-13T10:41:59;2.13;;;2.00;;
9374;SDS011;4727;51.202;6.344;2023-07-13T10:44:30;2.50;;;1.70;;
9374;SDS011;4727;51.202;6.344;2023-07-13T10:47:01;2.83;;;1.80;;
9374;SDS011;4727;51.202;6.344;2023-07-13T10:49:33;1.63;;;1.43;;
9374;SDS011;4727;51.202;6.344;2023-07-13T10:52:01;3.37;;;1.57;;
9374;SDS011;4727;51.202;6.344;2023-07-13T10:54:34;1.43;;;1.33;;
9374;SDS011;4727;51.202;6.344;2023-07-13T10:59:38;2.17;;;1.47;;
9374;SDS011;4727;51.202;6.344;2023-07-13T11:04:40;2.50;;;1.70;;
9374;SDS011;4727;51.202;6.344;2023-07-13T11:07:29;1.10;;;1.10;;
9374;SDS011;4727;51.202;6.344;2023-07-13T11:10:03;1.63;;;1.52;;
9374;SDS011;4727;51.202;6.344;2023-07-13T11:15:26;1.08;;;1.08;;
9374;SDS011;4727;51.202;6.344;2023-07-13T11:17:57;3.67;;;1.40;;
9374;SDS011;4727;51.202;6.344;2023-07-13T11:20:36;1.45;;;1.35;;
9374;SDS011;4727;51.202;6.344;2023-07-13T11:23:08;3.45;;;1.17;;
9374;SDS011;4727;51.202;6.344;2023-07-13T11:25:43;2.20;;;1.50;;
9374;SDS011;4727;51.202;6.344;2023-07-13T11:33:10;4.50;;;1.40;;
9374;SDS011;4727;51.202;6.344;2023-07-13T11:36:17;1.47;;;1.20;;
9374;SDS011;4727;51.202;6.344;2023-07-13T11:38:40;1.53;;;0.93;;
9374;SDS011;4727;51.202;6.344;2023-07-13T11:41:15;1.88;;;1.15;;
9374;SDS011;4727;51.202;6.344;2023-07-13T11:43:42;1.83;;;1.33;;
9374;SDS011;4727;51.202;6.344;2023-07-13T11:46:12;3.20;;;1.35;;
9374;SDS011;4727;51.202;6.344;2023-07-13T11:48:52;0.90;;;0.90;;
9374;SDS011;4727;51.202;6.344;2023-07-13T11:51:20;2.85;;;1.45;;
9374;SDS011;4727;51.202;6.344;2023-07-13T11:53:54;1.45;;;1.23;;
9374;SDS011;4727;51.202;6.344;2023-07-13T11:56:22;1.48;;;1.17;;
9374;SDS011;4727;51.202;6.344;2023-07-13T11:58:49;2.42;;;1.17;;
9374;SDS011;4727;51.202;6.344;2023-07-13T12:01:18;1.10;;;0.85;;
9374;SDS011;4727;51.202;6.344;2023-07-13T12:03:47;2.85;;;1.38;;
9374;SDS011;4727;51.202;6.344;2023-07-13T12:06:21;0.70;;;0.70;;
9374;SDS011;4727;51.202;6.344;2023-07-13T12:08:55;0.98;;;0.98;;
9374;SDS011;4727;51.202;6.344;2023-07-13T12:11:25;0.90;;;0.90;;
9374;SDS011;4727;51.202;6.344;2023-07-13T12:13:51;2.33;;;1.20;;
9374;SDS011;4727;51.202;6.344;2023-07-13T12:16:24;3.90;;;1.10;;
9374;SDS011;4727;51.202;6.344;2023-07-13T12:18:53;3.72;;;1.33;;
9374;SDS011;4727;51.202;6.344;2023-07-13T12:21:22;2.72;;;1.60;;
9374;SDS011;4727;51.202;6.344;2023-07-13T12:23:54;1.30;;;1.20;;
9374;SDS011;4727;51.202;6.344;2023-07-13T12:26:20;0.70;;;0.70;;
9374;SDS011;4727;51.202;6.344;2023-07-13T12:28:47;0.90;;;0.90;;
9374;SDS011;4727;51.202;6.344;2023-07-13T12:31:31;1.45;;;1.15;;
9374;SDS011;4727;51.202;6.344;2023-07-13T12:34:06;1.00;;;1.00;;
9374;SDS011;4727;51.202;6.344;2023-07-13T12:36:49;0.90;;;0.90;;
9374;SDS011;4727;51.202;6.344;2023-07-13T12:41:51;1.30;;;1.20;;
9374;SDS011;4727;51.202;6.344;2023-07-13T12:44:19;1.45;;;1.35;;
9374;SDS011;4727;51.202;6.344;2023-07-13T12:47:03;3.55;;;1.58;;
9374;SDS011;4727;51.202;6.344;2023-07-13T12:49:39;0.70;;;0.70;;
9374;SDS011;4727;51.202;6.344;2023-07-13T12:52:13;2.20;;;1.45;;
9374;SDS011;4727;51.202;6.344;2023-07-13T12:54:52;1.80;;;1.20;;
9374;SDS011;4727;51.202;6.344;2023-07-13T12:57:22;1.77;;;1.53;;
9374;SDS011;4727;51.202;6.344;2023-07-13T12:59:51;3.15;;;1.35;;
9374;SDS011;4727;51.202;6.344;2023-07-13T13:02:23;1.33;;;1.23;;
9374;SDS011;4727;51.202;6.344;2023-07-13T13:04:56;1.55;;;0.98;;
9374;SDS011;4727;51.202;6.344;2023-07-13T13:07:22;1.27;;;1.23;;
9374;SDS011;4727;51.202;6.344;2023-07-13T13:09:49;0.83;;;0.83;;
9374;SDS011;4727;51.202;6.344;2023-07-13T13:12:14;3.17;;;1.50;;
9374;SDS011;4727;51.202;6.344;2023-07-13T13:14:41;1.13;;;1.13;;
9374;SDS011;4727;51.202;6.344;2023-07-13T13:17:16;1.20;;;1.07;;
9374;SDS011;4727;51.202;6.344;2023-07-13T13:19:49;1.40;;;1.30;;
9374;SDS011;4727;51.202;6.344;2023-07-13T13:22:15;1.30;;;1.08;;
9374;SDS011;4727;51.202;6.344;2023-07-13T13:24:40;1.13;;;0.98;;
9374;SDS011;4727;51.202;6.344;2023-07-13T13:27:09;4.00;;;1.35;;
9374;SDS011;4727;51.202;6.344;2023-07-13T13:29:44;2.00;;;1.45;;
9374;SDS011;4727;51.202;6.344;2023-07-13T13:32:13;1.00;;;1.00;;
9374;SDS011;4727;51.202;6.344;2023-07-13T13:34:39;1.80;;;1.08;;
9374;SDS011;4727;51.202;6.344;2023-07-13T13:37:19;1.50;;;1.38;;
9374;SDS011;4727;51.202;6.344;2023-07-13T13:39:47;1.52;;;1.00;;
9374;SDS011;4727;51.202;6.344;2023-07-13T13:42:14;1.37;;;1.10;;
9374;SDS011;4727;51.202;6.344;2023-07-13T13:44:39;2.25;;;1.20;;
9374;SDS011;4727;51.202;6.344;2023-07-13T13:47:19;0.88;;;0.82;;
9374;SDS011;4727;51.202;6.344;2023-07-13T13:49:52;1.65;;;1.20;;
9374;SDS011;4727;51.202;6.344;2023-07-13T13:52:17;1.80;;;0.90;;
9374;SDS011;4727;51.202;6.344;2023-07-13T13:54:43;1.00;;;1.00;;
9374;SDS011;4727;51.202;6.344;2023-07-13T13:57:09;1.42;;;1.33;;
9374;SDS011;4727;51.202;6.344;2023-07-13T13:59:37;1.00;;;1.00;;
9374;SDS011;4727;51.202;6.344;2023-07-13T14:02:08;1.80;;;1.08;;
9374;SDS011;4727;51.202;6.344;2023-07-13T14:04:49;1.77;;;1.17;;
9374;SDS011;4727;51.202;6.344;2023-07-13T14:07:19;1.90;;;1.20;;
9374;SDS011;4727;51.202;6.344;2023-07-13T14:09:47;2.03;;;1.40;;
9374;SDS011;4727;51.202;6.344;2023-07-13T14:12:13;1.02;;;1.02;;
9374;SDS011;4727;51.202;6.344;2023-07-13T14:14:38;1.48;;;1.40;;
9374;SDS011;4727;51.202;6.344;2023-07-13T14:17:08;0.95;;;0.85;;
9374;SDS011;4727;51.202;6.344;2023-07-13T14:19:46;3.30;;;1.90;;
9374;SDS011;4727;51.202;6.344;2023-07-13T14:22:15;1.85;;;1.75;;
9374;SDS011;4727;51.202;6.344;2023-07-13T14:24:45;1.15;;;1.00;;
9374;SDS011;4727;51.202;6.344;2023-07-13T14:27:11;2.08;;;1.50;;
9374;SDS011;4727;51.202;6.344;2023-07-13T14:29:37;1.70;;;1.58;;
9374;SDS011;4727;51.202;6.344;2023-07-13T14:32:03;1.77;;;1.58;;
9374;SDS011;4727;51.202;6.344;2023-07-13T14:34:31;3.25;;;1.33;;
9374;SDS011;4727;51.202;6.344;2023-07-13T14:36:56;1.60;;;1.23;;
9374;SDS011;4727;51.202;6.344;2023-07-13T14:39:24;1.70;;;1.60;;
9374;SDS011;4727;51.202;6.344;2023-07-13T14:41:50;1.97;;;1.20;;
9374;SDS011;4727;51.202;6.344;2023-07-13T14:44:20;1.45;;;1.35;;
9374;SDS011;4727;51.202;6.344;2023-07-13T14:46:48;1.63;;;1.50;;
9374;SDS011;4727;51.202;6.344;2023-07-13T14:51:59;1.70;;;1.60;;
9374;SDS011;4727;51.202;6.344;2023-07-13T14:54:26;1.48;;;1.42;;
9374;SDS011;4727;51.202;6.344;2023-07-13T14:56:52;1.58;;;1.48;;
9374;SDS011;4727;51.202;6.344;2023-07-13T14:59:18;3.07;;;1.30;;
9374;SDS011;4727;51.202;6.344;2023-07-13T15:01:44;2.23;;;1.63;;
9374;SDS011;4727;51.202;6.344;2023-07-13T15:04:10;1.90;;;1.80;;
9374;SDS011;4727;51.202;6.344;2023-07-13T15:06:59;1.87;;;1.77;;
9374;SDS011;4727;51.202;6.344;2023-07-13T15:09:27;3.67;;;1.93;;
9374;SDS011;4727;51.202;6.344;2023-07-13T15:11:57;1.80;;;1.70;;
9374;SDS011;4727;51.202;6.344;2023-07-13T15:14:23;2.07;;;1.90;;
9374;SDS011;4727;51.202;6.344;2023-07-13T15:16:50;3.50;;;2.00;;
9374;SDS011;4727;51.202;6.344;2023-07-13T15:19:18;1.80;;;1.70;;
9374;SDS011;4727;51.202;6.344;2023-07-13T15:21:45;1.70;;;1.60;;
9374;SDS011;4727;51.202;6.344;2023-07-13T15:24:11;1.10;;;1.10;;
9374;SDS011;4727;51.202;6.344;2023-07-13T15:26:37;1.40;;;1.30;;
9374;SDS011;4727;51.202;6.344;2023-07-13T15:29:04;1.40;;;1.00;;
9374;SDS011;4727;51.202;6.344;2023-07-13T15:31:29;1.50;;;1.40;;
9374;SDS011;4727;51.202;6.344;2023-07-13T15:33:57;1.50;;;1.40;;
9374;SDS011;4727;51.202;6.344;2023-07-13T15:36:24;1.50;;;1.40;;
9374;SDS011;4727;51.202;6.344;2023-07-13T15:38:53;1.60;;;1.50;;
9374;SDS011;4727;51.202;6.344;2023-07-13T15:41:21;1.53;;;1.20;;
9374;SDS011;4727;51.202;6.344;2023-07-13T15:43:49;1.47;;;1.37;;
9374;SDS011;4727;51.202;6.344;2023-07-13T15:46:17;0.80;;;0.80;;
9374;SDS011;4727;51.202;6.344;2023-07-13T15:48:47;0.90;;;0.90;;
9374;SDS011;4727;51.202;6.344;2023-07-13T15:51:24;0.90;;;0.90;;
9374;SDS011;4727;51.202;6.344;2023-07-13T15:53:55;3.27;;;1.03;;
9374;SDS011;4727;51.202;6.344;2023-07-13T15:56:25;1.23;;;1.23;;
9374;SDS011;4727;51.202;6.344;2023-07-13T15:58:53;1.10;;;1.10;;